NCAR-RAP Real-Time Weather Data

Output produced by METARs form (10 April 2020  05:47 UTC)
found at http://weather.rap.ucar.edu/surface/
 
KDFW 100453Z 03015G20KT 10SM BKN160 BKN250 17/06 A3001 RMK AO2 SLP155 T01720056
KDFW 100353Z 03010G21KT 10SM SCT150 BKN250 18/07 A2998 RMK AO2 SLP147 T01830072
KDFW 100253Z 03012G19KT 10SM FEW150 BKN250 19/08 A2994 RMK AO2 SLP131 T01940083 53023
KDFW 100153Z 04004KT 10SM SCT110 BKN150 BKN250 20/11 A2990 RMK AO2 SLP118 T02000106
KDFW 100053Z 05005KT 10SM BKN110 OVC250 21/12 A2988 RMK AO2 SLP110 T02110117
KDFW 092353Z 04008KT 10SM BKN120 OVC250 22/12 A2987 RMK AO2 SLP107 60000 T02220117 10261 20217 58015
KDFW 092253Z 05007KT 10SM FEW065 BKN140 OVC250 23/13 A2988 RMK AO2 RAE13 SLP112 P0000 T02280128
KDFW 092153Z 15009KT 10SM -RA FEW065 OVC100 22/14 A2991 RMK AO2 RAB36 SLP120 P0000 T02220139
KDFW 092053Z 13005KT 10SM SCT041 SCT055 BKN120 OVC250 23/12 A2991 RMK AO2 SLP122 VIRGA ALQDS T02330117 53005
KDFW 091953Z 08007KT 10SM FEW120 BKN150 OVC250 24/12 A2990 RMK AO2 SLP116 VIRGA ALQDS T02440122
KDFW 091853Z 04010KT 10SM FEW120 BKN150 OVC250 25/13 A2989 RMK AO2 SLP113 VIRGA ALQDS T02500128
KDFW 091753Z 04013KT 10SM FEW120 BKN150 OVC250 24/13 A2990 RMK AO2 SLP115 VIRGA ALQDS T02440133 10250 20178 58003
KDFW 091653Z 08008KT 10SM FEW120 BKN180 OVC250 25/14 A2992 RMK AO2 SLP124 VIRGA SE-SW T02500139
KDFW 091553Z 06012KT 10SM FEW120 SCT200 BKN300 25/13 A2991 RMK AO2 SLP119 VIRGA S-SW T02500128
KDFW 091453Z 03007KT 10SM BKN200 BKN300 22/12 A2991 RMK AO2 SLP119 VIRGA SW T02220122 51019
KDFW 091353Z 01009KT 10SM FEW210 BKN300 21/12 A2989 RMK AO2 SLP113 T02110117
KDFW 091253Z 34005KT 10SM BKN220 BKN300 18/12 A2989 RMK AO2 SLP112 VIRGA SW-NW T01830117
KDFW 091153Z 35006KT 10SM BKN220 BKN300 18/12 A2985 RMK AO2 SLP099 T01780117 10250 20161 51004
KDFW 091053Z 35005KT 10SM SCT220 BKN300 18/11 A2985 RMK AO2 SLP098 T01830111
KDFW 090953Z 02007KT 10SM SCT230 BKN300 20/11 A2984 RMK AO2 SLP095 T02000106
KDFW 090853Z 04005KT 10SM SCT250 BKN300 19/12 A2984 RMK AO2 SLP095 T01890122 53006
KDFW 090753Z 01004KT 10SM SCT250 BKN300 21/11 A2983 RMK AO2 SLP091 FROPA T02060111
KDFW 090653Z VRB03KT 10SM SCT250 BKN300 22/11 A2982 RMK AO2 SLP088 T02220106